createdAt,value
2023-04-22T00:01:11.375Z,10.89
2023-04-22T00:03:51.208Z,10.86
2023-04-22T00:06:20.222Z,10.82
2023-04-22T00:08:48.580Z,10.80
2023-04-22T00:11:22.271Z,10.76
2023-04-22T00:13:53.948Z,10.74
2023-04-22T00:16:23.069Z,10.72
2023-04-22T00:18:59.827Z,10.68
2023-04-22T00:21:38.657Z,10.66
2023-04-22T00:24:07.185Z,10.64
2023-04-22T00:26:35.257Z,10.62
2023-04-22T00:29:03.034Z,10.58
2023-04-22T00:31:30.821Z,10.56
2023-04-22T00:34:00.437Z,10.53
2023-04-22T00:36:28.696Z,10.49
2023-04-22T00:38:56.385Z,10.48
2023-04-22T00:41:24.845Z,10.46
2023-04-22T00:43:53.527Z,10.44
2023-04-22T00:46:21.616Z,10.44
2023-04-22T00:48:50.320Z,10.40
2023-04-22T00:51:19.550Z,10.38
2023-04-22T00:53:47.371Z,10.35
2023-04-22T00:56:15.304Z,10.31
2023-04-22T00:58:43.105Z,10.26
2023-04-22T01:01:11.015Z,10.24
2023-04-22T01:03:41.769Z,10.21
2023-04-22T01:06:09.681Z,10.16
2023-04-22T01:08:38.656Z,10.14
2023-04-22T01:11:06.512Z,10.10
2023-04-22T01:13:35.882Z,10.08
2023-04-22T01:16:03.820Z,10.06
2023-04-22T01:18:32.448Z,10.04
2023-04-22T01:21:00.055Z,10.03
2023-04-22T01:23:32.347Z,10.02
2023-04-22T01:26:00.617Z,10.00
2023-04-22T01:28:28.760Z,10.01
2023-04-22T01:30:57.047Z,9.99
2023-04-22T01:33:25.319Z,9.99
2023-04-22T01:35:53.048Z,9.97
2023-04-22T01:38:20.808Z,9.93
2023-04-22T01:40:50.292Z,9.88
2023-04-22T01:43:17.986Z,9.84
2023-04-22T01:45:45.998Z,9.80
2023-04-22T01:48:13.702Z,9.74
2023-04-22T01:50:42.322Z,9.71
2023-04-22T01:53:13.957Z,9.67
2023-04-22T01:55:43.122Z,9.61
2023-04-22T01:58:15.564Z,9.57
2023-04-22T02:00:43.846Z,9.54
2023-04-22T02:03:11.731Z,9.50
2023-04-22T02:05:39.476Z,9.46
2023-04-22T02:08:07.505Z,9.43
2023-04-22T02:10:35.262Z,9.39
2023-04-22T02:13:03.041Z,9.35
2023-04-22T02:15:32.141Z,9.32
2023-04-22T02:18:00.017Z,9.27
2023-04-22T02:20:28.002Z,9.23
2023-04-22T02:22:55.787Z,9.21
2023-04-22T02:25:23.833Z,9.16
2023-04-22T02:27:51.571Z,9.13
2023-04-22T02:30:19.600Z,9.08
2023-04-22T02:32:49.428Z,9.05
2023-04-22T02:35:17.208Z,9.04
2023-04-22T02:37:44.890Z,9.02
2023-04-22T02:40:13.285Z,8.99
2023-04-22T02:42:41.163Z,8.96
2023-04-22T02:45:09.691Z,8.93
2023-04-22T02:47:37.458Z,8.90
2023-04-22T02:50:08.446Z,8.85
2023-04-22T02:52:36.517Z,8.86
2023-04-22T02:55:04.327Z,8.86
2023-04-22T02:57:32.386Z,8.85
2023-04-22T03:00:00.066Z,8.83
2023-04-22T03:02:28.217Z,8.78
2023-04-22T03:05:14.461Z,8.75
2023-04-22T03:07:42.144Z,8.72
2023-04-22T03:10:10.611Z,8.70
2023-04-22T03:12:38.290Z,8.67
2023-04-22T03:15:07.011Z,8.64
2023-04-22T03:17:36.012Z,8.61
2023-04-22T03:20:09.202Z,8.60
2023-04-22T03:22:38.470Z,8.57
2023-04-22T03:25:09.076Z,8.57
2023-04-22T03:27:37.431Z,8.53
2023-04-22T03:30:05.940Z,8.52
2023-04-22T03:32:33.675Z,8.49
2023-04-22T03:35:18.383Z,8.48
2023-04-22T03:37:50.046Z,8.47
2023-04-22T03:40:22.413Z,8.45
2023-04-22T03:42:50.508Z,8.42
2023-04-22T03:45:20.653Z,8.41
2023-04-22T03:47:56.276Z,8.38
2023-04-22T03:50:31.550Z,8.36
2023-04-22T03:53:02.656Z,8.34
2023-04-22T03:55:30.523Z,8.32
2023-04-22T03:57:58.293Z,8.30
2023-04-22T04:00:26.620Z,8.27
2023-04-22T04:03:07.033Z,8.23
2023-04-22T04:05:35.915Z,8.21
2023-04-22T04:08:05.544Z,8.21
2023-04-22T04:10:33.445Z,8.19
2023-04-22T04:13:04.103Z,8.16
2023-04-22T04:15:41.098Z,8.13
2023-04-22T04:18:11.649Z,8.09
2023-04-22T04:20:39.514Z,8.08
2023-04-22T04:23:08.909Z,8.07
2023-04-22T04:25:41.911Z,8.03
2023-04-22T04:28:13.922Z,8.02
2023-04-22T04:30:42.333Z,8.00
2023-04-22T04:33:12.425Z,7.97
2023-04-22T04:35:43.427Z,7.96
2023-04-22T04:38:14.452Z,7.92
2023-04-22T04:40:45.332Z,7.90
2023-04-22T04:43:17.707Z,7.87
2023-04-22T04:45:57.157Z,7.85
2023-04-22T04:48:36.887Z,7.84
2023-04-22T04:51:08.351Z,7.84
2023-04-22T04:53:43.486Z,7.84
2023-04-22T04:56:12.223Z,7.84
2023-04-22T04:58:40.376Z,7.87
2023-04-22T05:01:16.277Z,7.89
2023-04-22T05:03:52.340Z,7.92
2023-04-22T05:06:21.799Z,7.93
2023-04-22T05:08:58.724Z,7.95
2023-04-22T05:11:37.743Z,7.97
2023-04-22T05:14:13.157Z,8.00
2023-04-22T05:16:49.608Z,8.03
2023-04-22T05:19:24.385Z,8.05
2023-04-22T05:21:56.907Z,8.09
2023-04-22T05:24:30.183Z,8.11
2023-04-22T05:27:04.667Z,8.15
2023-04-22T05:29:39.697Z,8.19
2023-04-22T05:32:09.731Z,8.23
2023-04-22T05:34:40.164Z,8.29
2023-04-22T05:37:08.325Z,8.34
2023-04-22T05:39:39.891Z,8.40
2023-04-22T05:42:10.315Z,8.45
2023-04-22T05:44:39.002Z,8.52
2023-04-22T05:47:07.549Z,8.57
2023-04-22T05:49:38.834Z,8.66
2023-04-22T05:52:32.441Z,8.76
2023-04-22T05:55:10.269Z,8.84
2023-04-22T05:57:39.050Z,8.92
2023-04-22T06:00:15.031Z,9.00
2023-04-22T06:02:45.315Z,9.08
2023-04-22T06:05:13.555Z,9.17
2023-04-22T06:07:41.835Z,9.25
2023-04-22T06:10:12.256Z,9.33
2023-04-22T06:12:39.981Z,9.41
2023-04-22T06:15:08.642Z,9.46
2023-04-22T06:17:37.566Z,9.53
2023-04-22T06:20:06.635Z,9.60
2023-04-22T06:22:34.555Z,9.68
2023-04-22T06:25:02.881Z,9.75
2023-04-22T06:27:31.946Z,9.83
2023-04-22T06:29:59.800Z,9.92
2023-04-22T06:32:27.447Z,10.01
2023-04-22T06:34:55.095Z,10.09
2023-04-22T06:37:23.361Z,10.19
2023-04-22T06:39:51.182Z,10.29
2023-04-22T06:42:38.769Z,10.39
2023-04-22T06:45:38.638Z,10.48
2023-04-22T06:48:45.758Z,10.61
2023-04-22T06:51:24.633Z,10.70
2023-04-22T06:53:52.418Z,10.78
2023-04-22T06:56:20.226Z,10.90
2023-04-22T06:58:49.487Z,11.00
2023-04-22T07:01:18.060Z,11.10
2023-04-22T07:03:48.388Z,11.19
2023-04-22T07:06:16.419Z,11.28
2023-04-22T07:08:44.305Z,11.35
2023-04-22T07:11:14.259Z,11.46
2023-04-22T07:14:06.540Z,11.58
2023-04-22T07:16:34.559Z,11.71
2023-04-22T07:19:02.311Z,11.80
2023-04-22T07:21:30.042Z,11.90
2023-04-22T07:23:57.632Z,12.02
2023-04-22T07:26:25.737Z,12.13
2023-04-22T07:28:53.379Z,12.27
2023-04-22T07:31:22.420Z,12.37
2023-04-22T07:33:50.338Z,12.49
2023-04-22T07:36:18.189Z,12.63
2023-04-22T07:38:45.961Z,12.76
2023-04-22T07:41:13.978Z,12.91
2023-04-22T07:43:41.631Z,13.07
2023-04-22T07:46:09.401Z,13.23
2023-04-22T07:48:38.580Z,13.36
2023-04-22T07:51:06.615Z,13.51
2023-04-22T07:53:34.381Z,13.63
2023-04-22T07:56:02.883Z,13.80
2023-04-22T07:58:30.514Z,13.95
2023-04-22T08:00:58.329Z,14.13
2023-04-22T08:03:26.590Z,14.30
2023-04-22T08:05:58.175Z,14.45
2023-04-22T08:08:26.666Z,14.62
2023-04-22T08:10:54.401Z,14.78
2023-04-22T08:13:26.147Z,14.99
2023-04-22T08:15:54.033Z,15.16
2023-04-22T08:18:21.809Z,15.34
2023-04-22T08:20:51.313Z,15.51
2023-04-22T08:23:20.305Z,15.68
2023-04-22T08:25:48.185Z,15.86
2023-04-22T08:28:16.197Z,15.99
2023-04-22T08:30:43.858Z,16.09
2023-04-22T08:33:12.120Z,16.20
2023-04-22T08:35:39.882Z,16.36
2023-04-22T08:38:07.556Z,16.48
2023-04-22T08:40:36.732Z,16.62
2023-04-22T08:43:05.161Z,16.76
2023-04-22T08:45:33.685Z,16.93
2023-04-22T08:48:01.772Z,17.06
2023-04-22T08:50:30.060Z,17.16
2023-04-22T08:55:33.299Z,17.32
2023-04-22T08:58:03.898Z,17.43
2023-04-22T09:00:34.456Z,17.52
2023-04-22T09:03:03.893Z,17.62
2023-04-22T09:05:35.084Z,17.73
2023-04-22T09:08:04.245Z,17.83
2023-04-22T09:10:34.350Z,17.91
2023-04-22T09:13:04.426Z,18.01
2023-04-22T09:15:32.254Z,18.12
2023-04-22T09:18:00.046Z,18.24
2023-04-22T09:20:28.702Z,18.40
2023-04-22T09:22:57.989Z,18.52
2023-04-22T09:25:27.605Z,18.70
2023-04-22T09:27:58.641Z,18.80
2023-04-22T09:30:28.348Z,18.82
2023-04-22T09:32:57.854Z,18.94
2023-04-22T09:35:28.393Z,19.05
2023-04-22T09:37:56.143Z,19.19
2023-04-22T09:40:27.006Z,19.33
2023-04-22T09:42:58.446Z,19.42
2023-04-22T09:45:28.370Z,19.53
2023-04-22T09:47:57.628Z,19.67
2023-04-22T09:50:27.024Z,19.80
2023-04-22T09:52:57.768Z,19.90
2023-04-22T09:55:27.893Z,19.95
2023-04-22T09:57:59.033Z,20.04
2023-04-22T10:00:30.180Z,20.21
2023-04-22T10:02:58.148Z,20.40
2023-04-22T10:05:27.133Z,20.54
2023-04-22T10:07:54.943Z,20.60
2023-04-22T10:10:23.467Z,20.74
2023-04-22T10:12:52.356Z,20.87
2023-04-22T10:15:21.823Z,20.97
2023-04-22T10:17:53.295Z,21.13
2023-04-22T10:20:22.494Z,21.23
2023-04-22T10:22:54.277Z,21.44
2023-04-22T10:25:26.127Z,21.58
2023-04-22T10:27:55.782Z,21.69
2023-04-22T10:30:34.269Z,21.75
2023-04-22T10:33:37.049Z,21.92
2023-04-22T10:36:10.135Z,22.06
2023-04-22T10:38:38.587Z,22.15
2023-04-22T10:41:06.451Z,22.27
2023-04-22T10:43:45.281Z,22.45
2023-04-22T10:46:49.421Z,22.64
2023-04-22T10:49:21.794Z,22.73
2023-04-22T10:51:51.092Z,22.83
2023-04-22T10:54:57.620Z,22.94
2023-04-22T10:57:36.259Z,23.05
2023-04-22T11:00:35.397Z,23.23
2023-04-22T11:03:15.347Z,23.38
2023-04-22T11:05:45.396Z,23.44
2023-04-22T11:08:21.636Z,23.51
2023-04-22T11:10:50.862Z,23.55
2023-04-22T11:13:21.101Z,23.60
2023-04-22T11:15:50.583Z,23.54
2023-04-22T11:18:21.272Z,23.61
2023-04-22T11:20:51.447Z,23.70
2023-04-22T11:23:22.486Z,23.83
2023-04-22T11:25:55.962Z,23.87
2023-04-22T11:28:23.943Z,23.84
2023-04-22T11:30:52.477Z,23.94
2023-04-22T11:33:20.932Z,23.98
2023-04-22T11:35:51.647Z,24.15
2023-04-22T11:38:19.604Z,24.28
2023-04-22T11:40:47.933Z,24.34
2023-04-22T11:43:16.369Z,24.44
2023-04-22T11:45:44.343Z,24.58
2023-04-22T11:48:12.532Z,24.69
2023-04-22T11:50:44.232Z,24.71
2023-04-22T11:53:18.005Z,24.77
2023-04-22T11:55:47.467Z,24.89
2023-04-22T11:58:18.016Z,24.96
2023-04-22T12:00:48.214Z,24.83
2023-04-22T12:03:17.290Z,24.78
2023-04-22T12:05:46.764Z,24.79
2023-04-22T12:08:18.470Z,24.78
2023-04-22T12:10:48.169Z,24.75
2023-04-22T12:13:20.866Z,24.79
2023-04-22T12:15:49.181Z,24.81
2023-04-22T12:18:16.941Z,24.84
2023-04-22T12:20:44.800Z,24.85
2023-04-22T12:23:17.381Z,24.86
2023-04-22T12:25:45.319Z,24.86
2023-04-22T12:28:14.338Z,24.85
2023-04-22T12:30:42.463Z,24.85
2023-04-22T12:33:10.972Z,24.89
2023-04-22T12:35:39.038Z,24.86
2023-04-22T12:38:06.821Z,24.93
2023-04-22T12:40:36.172Z,25.00
2023-04-22T12:43:06.195Z,24.95
2023-04-22T12:45:34.050Z,24.83
2023-04-22T12:48:02.006Z,24.83
2023-04-22T12:50:29.742Z,24.80
2023-04-22T12:52:57.523Z,24.72
2023-04-22T12:55:26.076Z,24.69
2023-04-22T12:57:55.507Z,24.70
2023-04-22T13:00:23.416Z,24.78
2023-04-22T13:02:51.434Z,24.80
2023-04-22T13:05:20.355Z,24.85
2023-04-22T13:07:56.387Z,24.88
2023-04-22T13:10:34.484Z,24.90
2023-04-22T13:15:35.492Z,24.97
2023-04-22T13:18:03.361Z,24.93
2023-04-22T13:20:31.252Z,24.90
2023-04-22T13:22:59.003Z,24.90
2023-04-22T13:25:27.105Z,25.00
2023-04-22T13:27:54.873Z,25.04
2023-04-22T13:30:24.005Z,25.09
2023-04-22T13:32:52.083Z,25.07
2023-04-22T13:35:20.063Z,25.07
2023-04-22T13:37:47.878Z,25.07
2023-04-22T13:40:15.618Z,25.02
2023-04-22T13:42:44.439Z,25.06
2023-04-22T13:45:12.557Z,25.10
2023-04-22T13:47:41.730Z,25.14
2023-04-22T13:50:10.762Z,25.17
2023-04-22T13:52:38.819Z,25.13
2023-04-22T13:55:07.450Z,25.12
2023-04-22T13:57:35.257Z,25.11
2023-04-22T14:00:03.960Z,25.16
2023-04-22T14:02:40.945Z,25.18
2023-04-22T14:05:10.596Z,25.16
2023-04-22T14:07:38.517Z,25.07
2023-04-22T14:10:08.437Z,24.98
2023-04-22T14:12:36.224Z,24.92
2023-04-22T14:15:04.161Z,24.92
2023-04-22T14:17:31.939Z,24.87
2023-04-22T14:20:01.080Z,24.86
2023-04-22T14:22:28.804Z,24.94
2023-04-22T14:24:56.551Z,24.99
2023-04-22T14:27:24.382Z,24.98
2023-04-22T14:29:52.491Z,24.95
2023-04-22T14:32:20.418Z,24.93
2023-04-22T14:34:48.170Z,24.89
2023-04-22T14:37:17.260Z,24.74
2023-04-22T14:39:44.951Z,24.64
2023-04-22T14:42:12.763Z,24.57
2023-04-22T14:44:40.665Z,24.53
2023-04-22T14:47:08.411Z,24.46
2023-04-22T14:49:36.229Z,24.35
2023-04-22T14:52:04.056Z,24.23
2023-04-22T14:54:33.451Z,24.10
2023-04-22T14:57:01.720Z,23.97
2023-04-22T14:59:29.564Z,23.84
2023-04-22T15:01:57.883Z,23.67
2023-04-22T15:04:26.643Z,23.60
2023-04-22T15:06:57.737Z,23.53
2023-04-22T15:09:25.571Z,23.50
2023-04-22T15:11:56.513Z,23.46
2023-04-22T15:14:24.380Z,23.34
2023-04-22T15:16:52.230Z,23.27
2023-04-22T15:19:19.965Z,23.20
2023-04-22T15:21:47.937Z,23.15
2023-04-22T15:24:15.732Z,23.12
2023-04-22T15:26:43.622Z,23.14
2023-04-22T15:29:12.976Z,23.11
2023-04-22T15:31:40.778Z,23.10
2023-04-22T15:34:08.848Z,23.14
2023-04-22T15:36:36.680Z,23.20
2023-04-22T15:39:05.486Z,23.28
2023-04-22T15:41:34.072Z,23.26
2023-04-22T15:44:02.422Z,23.20
2023-04-22T15:46:33.375Z,23.11
2023-04-22T15:49:02.035Z,23.08
2023-04-22T15:51:31.000Z,23.04
2023-04-22T15:53:59.625Z,22.96
2023-04-22T15:56:29.484Z,22.90
2023-04-22T15:58:57.203Z,22.86
2023-04-22T16:01:25.068Z,22.84
2023-04-22T16:03:54.283Z,22.79
2023-04-22T16:06:22.112Z,22.74
2023-04-22T16:08:49.945Z,22.68
2023-04-22T16:11:17.880Z,22.66
2023-04-22T16:13:46.092Z,22.60
2023-04-22T16:16:14.078Z,22.53
2023-04-22T16:18:44.201Z,22.48
2023-04-22T16:21:13.664Z,22.41
2023-04-22T16:23:41.477Z,22.36
2023-04-22T16:26:09.357Z,22.33
2023-04-22T16:28:37.188Z,22.29
2023-04-22T16:31:05.124Z,22.24
2023-04-22T16:33:34.288Z,22.21
2023-04-22T16:36:02.105Z,22.16
2023-04-22T16:38:31.217Z,22.10
2023-04-22T16:40:58.991Z,22.02
2023-04-22T16:43:26.712Z,21.95
2023-04-22T16:45:54.453Z,21.89
2023-04-22T16:48:22.144Z,21.81
2023-04-22T16:50:51.260Z,21.75
2023-04-22T16:53:19.218Z,21.64
2023-04-22T16:55:48.357Z,21.54
2023-04-22T16:58:16.226Z,21.42
2023-04-22T17:00:45.279Z,21.31
2023-04-22T17:03:14.422Z,21.20
2023-04-22T17:05:42.357Z,21.10
2023-04-22T17:08:10.224Z,20.99
2023-04-22T17:10:41.511Z,20.87
2023-04-22T17:13:10.766Z,20.77
2023-04-22T17:15:38.745Z,20.66
2023-04-22T17:18:07.895Z,20.57
2023-04-22T17:20:36.068Z,20.47
2023-04-22T17:23:04.188Z,20.35
2023-04-22T17:25:32.338Z,20.24
2023-04-22T17:28:00.003Z,20.14
2023-04-22T17:30:29.180Z,20.04
2023-04-22T17:32:57.422Z,19.94
2023-04-22T17:35:25.464Z,19.84
2023-04-22T17:37:53.710Z,19.76
2023-04-22T17:40:21.929Z,19.66
2023-04-22T17:42:49.675Z,19.56
2023-04-22T17:45:17.538Z,19.47
2023-04-22T17:47:48.445Z,19.37
2023-04-22T17:50:16.428Z,19.29
2023-04-22T17:52:44.457Z,19.20
2023-04-22T17:55:12.208Z,19.13
2023-04-22T17:57:40.813Z,19.06
2023-04-22T18:00:10.252Z,18.96
2023-04-22T18:02:39.710Z,18.91
2023-04-22T18:05:09.790Z,18.83
2023-04-22T18:07:37.533Z,18.77
2023-04-22T18:10:06.280Z,18.71
2023-04-22T18:12:34.004Z,18.62
2023-04-22T18:15:01.982Z,18.56
2023-04-22T18:17:29.734Z,18.49
2023-04-22T18:20:06.331Z,18.42
2023-04-22T18:22:43.467Z,18.34
2023-04-22T18:25:11.457Z,18.25
2023-04-22T18:27:39.183Z,18.19
2023-04-22T18:30:07.955Z,18.11
2023-04-22T18:32:36.828Z,18.03
2023-04-22T18:35:05.726Z,17.96
2023-04-22T18:37:34.884Z,17.86
2023-04-22T18:40:06.105Z,17.80
2023-04-22T18:42:33.856Z,17.71
2023-04-22T18:45:04.635Z,17.64
2023-04-22T18:47:33.310Z,17.57
2023-04-22T18:50:01.342Z,17.51
2023-04-22T18:52:29.160Z,17.45
2023-04-22T18:54:57.145Z,17.37
2023-04-22T18:57:26.483Z,17.31
2023-04-22T18:59:54.983Z,17.25
2023-04-22T19:02:22.922Z,17.19
2023-04-22T19:04:50.999Z,17.14
2023-04-22T19:07:18.849Z,17.07
2023-04-22T19:09:46.740Z,17.01
2023-04-22T19:12:16.613Z,16.94
2023-04-22T19:14:47.147Z,16.87
2023-04-22T19:17:14.997Z,16.80
2023-04-22T19:19:43.210Z,16.73
2023-04-22T19:22:12.448Z,16.66
2023-04-22T19:24:40.241Z,16.58
2023-04-22T19:27:12.388Z,16.52
2023-04-22T19:29:40.745Z,16.47
2023-04-22T19:32:11.034Z,16.40
2023-04-22T19:34:39.221Z,16.35
2023-04-22T19:37:08.203Z,16.28
2023-04-22T19:39:36.350Z,16.25
2023-04-22T19:42:04.313Z,16.21
2023-04-22T19:44:32.252Z,16.14
2023-04-22T19:47:00.216Z,16.10
2023-04-22T19:49:31.183Z,16.05
2023-04-22T19:51:59.118Z,16.01
2023-04-22T19:54:28.908Z,15.96
2023-04-22T19:56:58.000Z,15.94
2023-04-22T19:59:28.041Z,15.92
2023-04-22T20:01:56.089Z,15.91
2023-04-22T20:04:24.482Z,15.89
2023-04-22T20:06:54.256Z,15.86
2023-04-22T20:09:22.632Z,15.83
2023-04-22T20:11:51.023Z,15.81
2023-04-22T20:14:19.681Z,15.78
2023-04-22T20:16:49.886Z,15.75
2023-04-22T20:19:19.128Z,15.72
2023-04-22T20:21:48.804Z,15.69
2023-04-22T20:24:20.089Z,15.68
2023-04-22T20:26:49.558Z,15.64
2023-04-22T20:29:18.857Z,15.60
2023-04-22T20:31:47.017Z,15.51
2023-04-22T20:34:14.973Z,15.41
2023-04-22T20:36:43.689Z,15.34
2023-04-22T20:39:14.236Z,15.29
2023-04-22T20:41:44.385Z,15.24
2023-04-22T20:44:12.168Z,15.20
2023-04-22T20:46:40.116Z,15.18
2023-04-22T20:49:08.357Z,15.17
2023-04-22T20:51:36.269Z,15.17
2023-04-22T20:54:06.165Z,15.15
2023-04-22T20:56:37.661Z,15.14
2023-04-22T20:59:06.998Z,15.13
2023-04-22T21:01:35.435Z,15.11
2023-04-22T21:04:04.531Z,15.11
2023-04-22T21:06:34.074Z,15.12
2023-04-22T21:09:03.094Z,15.12
2023-04-22T21:11:31.533Z,15.12
2023-04-22T21:13:59.997Z,15.12
2023-04-22T21:16:31.559Z,15.14
2023-04-22T21:19:00.770Z,15.13
2023-04-22T21:21:33.941Z,15.10
2023-04-22T21:24:02.591Z,15.10
2023-04-22T21:26:30.622Z,15.06
2023-04-22T21:28:59.293Z,15.04
2023-04-22T21:31:27.696Z,15.04
2023-04-22T21:33:57.183Z,15.06
2023-04-22T21:36:26.487Z,15.07
2023-04-22T21:38:54.940Z,15.07
2023-04-22T21:41:23.420Z,15.06
2023-04-22T21:43:51.218Z,15.06
2023-04-22T21:46:20.022Z,15.05
2023-04-22T21:48:47.771Z,15.05
2023-04-22T21:51:16.946Z,15.01
2023-04-22T21:53:45.298Z,14.99
2023-04-22T21:56:13.315Z,14.98
2023-04-22T21:58:41.253Z,14.95
2023-04-22T22:01:09.097Z,14.94
2023-04-22T22:03:38.030Z,14.91
2023-04-22T22:06:06.520Z,14.89
2023-04-22T22:08:35.590Z,14.87
2023-04-22T22:11:05.906Z,14.87
2023-04-22T22:13:34.124Z,14.85
2023-04-22T22:16:01.993Z,14.86
2023-04-22T22:18:29.873Z,14.85
2023-04-22T22:20:57.591Z,14.85
2023-04-22T22:23:25.973Z,14.84
2023-04-22T22:25:55.080Z,14.83
2023-04-22T22:28:22.824Z,14.82
2023-04-22T22:30:50.591Z,14.81
2023-04-22T22:33:18.599Z,14.78
2023-04-22T22:35:46.413Z,14.78
2023-04-22T22:38:14.262Z,14.77
2023-04-22T22:40:41.958Z,14.77
2023-04-22T22:43:11.071Z,14.74
2023-04-22T22:45:38.953Z,14.73
2023-04-22T22:48:07.056Z,14.71
2023-04-22T22:50:34.914Z,14.68
2023-04-22T22:53:02.697Z,14.66
2023-04-22T22:55:30.423Z,14.64
2023-04-22T22:57:58.225Z,14.61
2023-04-22T23:00:27.455Z,14.58
2023-04-22T23:02:55.713Z,14.54
2023-04-22T23:05:23.546Z,14.53
2023-04-22T23:07:51.399Z,14.52
2023-04-22T23:10:19.162Z,14.52
2023-04-22T23:12:46.900Z,14.50
2023-04-22T23:15:14.587Z,14.47
2023-04-22T23:17:43.693Z,14.45
2023-04-22T23:20:12.288Z,14.42
2023-04-22T23:22:40.796Z,14.40
2023-04-22T23:25:10.286Z,14.39
2023-04-22T23:27:38.557Z,14.40
2023-04-22T23:30:07.928Z,14.37
2023-04-22T23:32:36.928Z,14.34
2023-04-22T23:35:07.838Z,14.32
2023-04-22T23:37:38.090Z,14.29
2023-04-22T23:40:06.916Z,14.29
2023-04-22T23:42:34.702Z,14.26
2023-04-22T23:45:02.704Z,14.24
2023-04-22T23:47:31.351Z,14.23
2023-04-22T23:49:59.276Z,14.19
2023-04-22T23:52:28.488Z,14.18
2023-04-22T23:54:57.934Z,14.16
2023-04-22T23:57:26.115Z,14.15
2023-04-22T23:59:54.488Z,14.14
